Terminal Aerodrome Forecast
Issued by NWS

Home | Current Version | Previous Version | Text Only | Print | Product List | Glossary On
Versions: 1 2 3 4 5 6 7 8 9 10 11 12 13 14 15 16 17 18 19 20 21 22 23 24 25 26 27 28 29 30 31 32 33 34
000
FTUS43 KTOP 022300
TAFFOE
TAF
KFOE 022326Z 0300/0324 10005KT P6SM FEW035
     FM031000 15006KT P6SM VCTS SCT015 BKN070CB
     FM031400 18014KT P6SM BKN150
     FM031600 19020G26KT P6SM FEW050=

USA.gov is the U.S. government's official web portal to all federal, state and local government web resources and services.